Time;durP1;ratioP1;P1;durP2;ratioP2;P2;SDS_P1;SDS_P2;PMS_P1;PMS_P2;Temp;Humidity;BMP_temperature;BMP_pressure;BME280_temperature;BME280_humidity;BME280_pressure;Samples;Min_cycle;Max_cycle;Signal;HPM_P1;HPM_P2
2022/11/04 00:01:52;;;;;;;4.22;1.45;;;11.20;99.90;;;;;;5094070;28;20093;-77
2022/11/04 00:04:19;;;;;;;5.18;1.55;;;11.20;99.90;;;;;;5091999;28;20024;-77
2022/11/04 00:06:45;;;;;;;3.67;1.30;;;11.10;99.90;;;;;;5094213;28;20071;-77
2022/11/04 00:09:16;;;;;;;4.38;1.38;;;11.10;99.90;;;;;;5093876;28;20024;-77
2022/11/04 00:14:28;;;;;;;5.20;1.48;;;11.00;99.90;;;;;;5093720;28;20039;-77
2022/11/04 00:30:36;;;;;;;5.78;1.70;;;10.90;99.90;;;;;;5093772;28;20073;-78
2022/11/04 00:35:50;;;;;;;6.47;1.90;;;10.90;99.90;;;;;;5093239;28;20027;-78
2022/11/04 00:38:17;;;;;;;4.53;1.67;;;11.00;99.90;;;;;;5093236;28;20055;-77
2022/11/04 00:40:43;;;;;;;5.05;1.58;;;11.10;99.90;;;;;;5093442;28;20020;-77
2022/11/04 00:43:08;;;;;;;6.18;1.30;;;11.10;99.90;;;;;;5098590;28;20031;-77
2022/11/04 00:45:34;;;;;;;4.55;1.60;;;11.10;99.90;;;;;;5091534;28;20024;-77
2022/11/04 00:48:00;;;;;;;8.95;1.98;;;11.10;99.90;;;;;;5093047;28;20494;-77
2022/11/04 00:50:26;;;;;;;6.43;1.88;;;11.00;99.90;;;;;;5091419;28;20477;-77
2022/11/04 00:52:57;;;;;;;6.47;1.60;;;11.10;99.90;;;;;;5093386;28;20023;-77
2022/11/04 00:55:22;;;;;;;6.43;1.52;;;11.20;99.90;;;;;;5093050;28;20119;-77
2022/11/04 00:57:48;;;;;;;4.60;1.17;;;11.10;99.90;;;;;;5092965;28;20111;-77
2022/11/04 01:00:14;;;;;;;4.65;1.48;;;11.00;99.90;;;;;;5093038;28;20032;-77
2022/11/04 01:02:40;;;;;;;5.22;1.25;;;11.00;99.90;;;;;;5091602;28;20052;-77
2022/11/04 01:05:06;;;;;;;3.53;1.17;;;10.90;99.90;;;;;;5092603;28;20512;-77
2022/11/04 01:07:31;;;;;;;1.65;1.10;;;10.90;99.90;;;;;;5093162;28;20497;-77
2022/11/04 01:09:57;;;;;;;5.18;1.33;;;10.90;99.90;;;;;;5091260;28;20020;-77
2022/11/04 01:12:23;;;;;;;3.25;1.33;;;10.90;99.90;;;;;;5092481;28;20531;-77
2022/11/04 01:14:48;;;;;;;4.15;1.15;;;10.90;99.90;;;;;;5091122;28;20051;-77
2022/11/04 01:17:15;;;;;;;3.00;1.27;;;10.80;99.90;;;;;;5091386;28;20124;-77
2022/11/04 01:19:40;;;;;;;5.43;1.50;;;10.80;99.90;;;;;;5092385;28;20490;-78
2022/11/04 01:22:06;;;;;;;3.53;1.17;;;10.80;99.90;;;;;;5092769;28;20035;-77
2022/11/04 01:24:32;;;;;;;4.30;1.20;;;10.80;99.90;;;;;;5092302;28;20048;-78
2022/11/04 01:26:58;;;;;;;6.47;1.13;;;10.80;99.90;;;;;;5091907;28;20482;-77
2022/11/04 01:29:24;;;;;;;4.93;1.50;;;10.90;99.90;;;;;;5091138;28;20437;-77
2022/11/04 01:31:49;;;;;;;4.95;1.25;;;10.90;99.90;;;;;;5091096;28;20381;-77
2022/11/04 01:34:15;;;;;;;5.53;1.50;;;11.00;99.90;;;;;;5092527;28;20038;-77
2022/11/04 01:36:41;;;;;;;5.65;1.50;;;11.00;99.90;;;;;;5091937;28;20036;-78
2022/11/04 01:39:06;;;;;;;9.00;1.65;;;11.00;99.90;;;;;;5092398;28;20060;-77
2022/11/04 01:41:33;;;;;;;5.50;1.83;;;11.10;99.90;;;;;;5098602;28;20473;-77
2022/11/04 01:44:23;;;;;;;5.20;1.35;;;11.10;99.90;;;;;;5092786;28;20056;-77
2022/11/04 01:46:52;;;;;;;13.13;2.05;;;11.20;99.90;;;;;;5090757;28;20559;-78
2022/11/04 01:49:21;;;;;;;11.85;2.45;;;11.20;99.90;;;;;;5091975;28;20039;-78
2022/11/04 01:51:49;;;;;;;12.45;2.60;;;11.10;99.90;;;;;;5092433;28;20027;-78
2022/11/04 01:54:15;;;;;;;7.10;2.00;;;11.10;99.90;;;;;;5090924;28;20036;-78
2022/11/04 01:56:43;;;;;;;11.80;2.03;;;11.10;99.90;;;;;;5091969;28;20031;-78
2022/11/04 01:59:17;;;;;;;9.10;2.88;;;11.10;99.90;;;;;;5090927;28;20059;-78
2022/11/04 02:01:43;;;;;;;6.47;2.10;;;11.10;99.90;;;;;;5092308;28;20512;-78
2022/11/04 02:04:24;;;;;;;7.13;1.85;;;11.10;99.90;;;;;;5091938;28;20032;-79
2022/11/04 02:06:57;;;;;;;10.60;1.83;;;11.10;99.90;;;;;;5090848;28;20024;-78
2022/11/04 02:09:25;;;;;;;7.55;1.67;;;11.10;99.90;;;;;;5092159;28;20072;-78
2022/11/04 02:14:35;;;;;;;9.52;2.22;;;11.20;99.90;;;;;;5092285;28;20043;-79
2022/11/04 02:17:06;;;;;;;9.45;1.92;;;11.20;99.90;;;;;;5092070;28;20030;-79
2022/11/04 02:19:52;;;;;;;4.18;1.30;;;11.20;99.90;;;;;;5090513;28;20473;-79
2022/11/04 02:22:18;;;;;;;9.73;1.50;;;11.20;99.90;;;;;;5092107;28;20028;-78
2022/11/04 02:25:01;;;;;;;5.90;1.73;;;11.20;99.90;;;;;;5090548;28;20035;-78
2022/11/04 02:27:30;;;;;;;4.93;1.63;;;11.20;99.90;;;;;;5092144;28;20012;-78
2022/11/04 02:30:06;;;;;;;5.50;1.48;;;11.20;99.90;;;;;;5091618;28;20032;-79
2022/11/04 02:32:44;;;;;;;3.72;1.00;;;11.20;99.90;;;;;;5092123;28;20092;-79
2022/11/04 02:35:29;;;;;;;7.72;1.67;;;11.20;99.90;;;;;;5091827;28;20028;-78
2022/11/04 02:38:15;;;;;;;4.80;1.33;;;11.10;99.90;;;;;;5092342;28;20063;-79
2022/11/04 02:40:49;;;;;;;4.30;1.63;;;11.20;99.90;;;;;;5032549;28;20041;-79
2022/11/04 02:43:59;;;;;;;8.82;1.67;;;11.10;99.90;;;;;;5019320;28;20052;-78
2022/11/04 02:46:39;;;;;;;7.15;1.77;;;11.10;99.90;;;;;;5032686;28;20094;-79
2022/11/04 02:49:19;;;;;;;6.30;1.20;;;11.10;99.90;;;;;;5032729;28;20029;-79
2022/11/04 02:52:06;;;;;;;6.28;2.00;;;11.10;99.90;;;;;;5032784;28;20037;-78
2022/11/04 02:54:42;;;;;;;8.55;1.65;;;11.00;99.90;;;;;;5015895;28;20033;-79
2022/11/04 02:57:12;;;;;;;7.13;1.60;;;10.90;99.90;;;;;;5015926;28;20033;-79
2022/11/04 02:59:46;;;;;;;7.47;2.00;;;10.90;99.90;;;;;;5032880;28;20031;-78
2022/11/04 03:02:21;;;;;;;10.10;1.77;;;10.90;99.90;;;;;;5016035;28;20029;-79
2022/11/04 03:04:50;;;;;;;8.88;2.15;;;11.00;99.90;;;;;;5032489;28;20030;-78
2022/11/04 03:07:21;;;;;;;9.88;1.80;;;11.00;99.90;;;;;;5032360;28;20060;-78
2022/11/04 03:09:51;;;;;;;5.63;1.33;;;11.00;99.90;;;;;;5032257;28;20032;-78
2022/11/04 03:12:21;;;;;;;8.95;1.77;;;11.00;99.90;;;;;;5015397;28;20033;-78
2022/11/04 03:14:54;;;;;;;6.32;1.17;;;11.00;99.90;;;;;;5015779;28;20120;-78
2022/11/04 03:17:30;;;;;;;8.30;2.15;;;11.10;99.90;;;;;;5045667;28;20036;-78
2022/11/04 03:19:58;;;;;;;8.95;1.50;;;11.10;99.90;;;;;;5074512;28;20035;-79
2022/11/04 03:22:29;;;;;;;9.40;1.70;;;11.10;99.90;;;;;;5073991;28;20021;-79
2022/11/04 03:24:56;;;;;;;7.18;1.42;;;11.20;99.90;;;;;;5074831;28;20071;-79
2022/11/04 03:27:57;;;;;;;8.32;1.67;;;11.20;99.90;;;;;;5072806;28;20086;-79
2022/11/04 03:30:23;;;;;;;13.23;2.90;;;11.20;99.90;;;;;;5074503;28;20019;-78
2022/11/04 03:33:15;;;;;;;8.82;2.33;;;11.20;99.90;;;;;;5074419;28;20021;-78
2022/11/04 03:35:40;;;;;;;8.02;1.70;;;11.30;99.90;;;;;;4976213;28;20030;-78
2022/11/04 03:38:06;;;;;;;7.97;1.55;;;11.30;99.90;;;;;;4992583;28;20042;-78
2022/11/04 03:40:33;;;;;;;15.27;2.80;;;11.40;99.90;;;;;;4992424;28;20121;-78
2022/11/04 03:43:24;;;;;;;14.30;2.25;;;11.40;99.90;;;;;;4998131;28;20080;-78
2022/11/04 03:45:50;;;;;;;9.63;1.75;;;11.40;99.90;;;;;;4992360;28;20058;-78
2022/11/04 03:48:16;;;;;;;10.70;2.60;;;11.40;99.90;;;;;;4992217;28;20022;-79
2022/11/04 03:50:47;;;;;;;9.70;1.92;;;11.40;99.90;;;;;;4991724;28;20032;-78
2022/11/04 03:53:17;;;;;;;11.60;1.80;;;11.40;99.90;;;;;;4975992;28;20034;-78
2022/11/04 03:56:07;;;;;;;6.05;1.38;;;11.50;99.90;;;;;;4992369;28;20081;-78
2022/11/04 03:58:41;;;;;;;7.75;2.35;;;11.50;99.90;;;;;;4975721;28;20536;-78
2022/11/04 04:01:25;;;;;;;9.52;1.80;;;11.50;99.90;;;;;;4992276;28;20109;-78
2022/11/04 04:04:18;;;;;;;8.73;2.08;;;11.40;99.90;;;;;;4975663;28;20104;-77
2022/11/04 04:06:45;;;;;;;8.80;1.83;;;11.20;99.90;;;;;;4914799;29;20055;-77
2022/11/04 04:09:25;;;;;;;10.55;1.80;;;11.10;99.90;;;;;;4899383;29;20123;-77
2022/11/04 04:12:02;;;;;;;8.23;1.57;;;11.10;99.90;;;;;;4912822;28;20053;-76
2022/11/04 04:14:39;;;;;;;10.30;1.98;;;11.00;99.90;;;;;;5000524;28;20275;-76
2022/11/04 04:17:35;;;;;;;7.25;1.67;;;11.00;99.90;;;;;;5011417;28;20038;-76
2022/11/04 04:20:06;;;;;;;8.77;2.42;;;11.00;99.90;;;;;;5011074;28;20026;-76
2022/11/04 04:22:52;;;;;;;8.82;2.20;;;11.00;99.90;;;;;;5011148;28;20149;-76
2022/11/04 04:28:05;;;;;;;9.10;1.73;;;10.90;99.90;;;;;;5011354;28;20426;-76
2022/11/04 04:30:31;;;;;;;8.68;2.17;;;10.90;99.90;;;;;;5011167;28;20026;-76
2022/11/04 04:33:11;;;;;;;16.30;3.17;;;10.90;99.90;;;;;;5011227;28;20026;-76
2022/11/04 04:35:45;;;;;;;10.00;1.88;;;10.90;99.90;;;;;;5011227;28;20036;-76
2022/11/04 04:47:23;;;;;;;11.45;2.15;;;10.90;99.90;;;;;;5072802;28;20100;-76
2022/11/04 04:49:54;;;;;;;7.90;1.60;;;10.90;99.90;;;;;;5080484;28;20016;-76
2022/11/04 04:52:22;;;;;;;8.70;2.08;;;10.90;99.90;;;;;;5093002;28;20023;-76
2022/11/04 04:54:48;;;;;;;12.32;2.00;;;11.00;99.90;;;;;;5091702;28;20032;-76
2022/11/04 04:57:13;;;;;;;12.00;2.22;;;11.00;99.90;;;;;;5092886;28;20030;-76
2022/11/04 04:59:39;;;;;;;6.82;1.70;;;11.00;99.90;;;;;;5092756;28;20513;-76
2022/11/04 05:02:05;;;;;;;9.98;2.05;;;11.10;99.90;;;;;;5092316;28;20180;-76
2022/11/04 05:04:30;;;;;;;11.43;2.15;;;11.00;99.90;;;;;;5092463;28;20035;-76
2022/11/04 05:06:56;;;;;;;9.80;1.70;;;11.10;99.90;;;;;;5092840;28;20017;-76
2022/11/04 05:09:22;;;;;;;8.00;1.67;;;11.10;99.90;;;;;;5092848;28;20570;-76
2022/11/04 05:11:47;;;;;;;13.80;2.75;;;11.10;99.90;;;;;;5092236;28;20020;-76
2022/11/04 05:14:13;;;;;;;12.13;2.60;;;11.10;99.90;;;;;;5092750;28;20020;-76
2022/11/04 05:16:39;;;;;;;14.73;3.25;;;11.20;99.90;;;;;;5091250;28;20478;-76
2022/11/04 05:19:04;;;;;;;11.25;2.03;;;11.20;99.90;;;;;;5092158;28;20445;-76
2022/11/04 05:21:30;;;;;;;12.15;2.28;;;11.20;99.90;;;;;;5092529;28;20024;-76
2022/11/04 05:23:55;;;;;;;9.80;2.60;;;11.20;99.90;;;;;;5092299;28;20074;-76
2022/11/04 05:26:21;;;;;;;7.85;2.42;;;11.20;99.90;;;;;;5092723;28;20050;-76
2022/11/04 05:28:48;;;;;;;5.82;1.27;;;11.30;99.90;;;;;;5092580;28;20124;-76
2022/11/04 05:31:14;;;;;;;10.13;1.65;;;11.30;99.90;;;;;;5091001;28;20031;-76
2022/11/04 05:33:39;;;;;;;6.15;2.15;;;11.20;99.90;;;;;;5092267;28;20404;-76
2022/11/04 05:36:06;;;;;;;8.93;2.08;;;11.20;99.90;;;;;;5092720;28;20058;-76
2022/11/04 05:38:32;;;;;;;6.13;1.38;;;11.30;99.90;;;;;;5092514;28;20028;-76
2022/11/04 05:40:57;;;;;;;6.60;2.00;;;11.30;99.90;;;;;;5093995;28;20378;-76
2022/11/04 05:43:23;;;;;;;6.90;1.70;;;11.40;99.90;;;;;;5097674;28;20069;-76
2022/11/04 05:45:49;;;;;;;7.22;1.80;;;11.30;99.90;;;;;;5092324;28;20466;-76
2022/11/04 05:48:15;;;;;;;14.93;2.53;;;11.30;99.90;;;;;;5092001;28;20031;-76
2022/11/04 05:50:40;;;;;;;3.53;1.55;;;11.20;99.90;;;;;;5092161;28;20028;-76
2022/11/04 05:53:06;;;;;;;5.88;1.50;;;11.20;99.90;;;;;;5092281;28;20481;-76
2022/11/04 05:55:32;;;;;;;5.75;1.58;;;11.10;99.90;;;;;;5092475;28;20469;-76
2022/11/04 05:57:58;;;;;;;6.60;1.88;;;11.00;99.90;;;;;;5092225;28;20032;-76
2022/11/04 06:00:25;;;;;;;10.52;1.63;;;11.00;99.90;;;;;;5090614;28;20138;-76
2022/11/04 06:02:50;;;;;;;9.45;1.55;;;10.90;99.90;;;;;;5092144;28;20031;-76
2022/11/04 06:05:16;;;;;;;9.25;2.47;;;10.90;99.90;;;;;;5092059;28;20389;-76
2022/11/04 06:07:42;;;;;;;8.20;1.75;;;10.90;99.90;;;;;;5092168;28;20507;-76
2022/11/04 06:10:08;;;;;;;9.52;2.20;;;10.90;99.90;;;;;;5092495;28;20456;-76
2022/11/04 06:12:33;;;;;;;6.18;1.48;;;10.90;99.90;;;;;;5091496;28;20028;-76
2022/11/04 06:14:59;;;;;;;8.23;1.70;;;10.90;99.90;;;;;;5096108;28;20440;-76
2022/11/04 06:17:25;;;;;;;8.02;1.77;;;10.90;99.90;;;;;;5095756;28;20477;-76
2022/11/04 06:19:50;;;;;;;5.55;1.42;;;10.90;99.90;;;;;;5095837;28;20443;-77
2022/11/04 06:22:18;;;;;;;7.30;2.10;;;10.80;99.90;;;;;;5096257;28;20024;-76
2022/11/04 06:24:44;;;;;;;9.35;1.80;;;10.90;99.90;;;;;;5096037;28;20035;-76
2022/11/04 06:27:10;;;;;;;7.80;1.80;;;11.00;99.90;;;;;;5095744;28;20031;-77
2022/11/04 06:29:40;;;;;;;6.13;1.80;;;10.90;99.90;;;;;;5095988;28;20024;-76
2022/11/04 06:32:10;;;;;;;10.90;1.70;;;10.90;99.90;;;;;;5095362;28;20024;-76
2022/11/04 06:34:36;;;;;;;9.17;1.50;;;10.90;99.90;;;;;;5095534;28;20051;-75
2022/11/04 06:37:02;;;;;;;10.82;2.35;;;10.80;99.90;;;;;;5095732;28;20427;-76
2022/11/04 06:39:28;;;;;;;7.82;1.63;;;10.80;99.90;;;;;;5095920;28;20027;-76
2022/11/04 06:41:53;;;;;;;8.48;1.92;;;10.70;99.90;;;;;;5104851;28;20026;-75
2022/11/04 06:44:19;;;;;;;5.55;1.85;;;10.80;99.90;;;;;;5091810;28;20047;-76
2022/11/04 06:46:45;;;;;;;9.43;1.52;;;10.80;99.90;;;;;;5093792;28;20504;-76
2022/11/04 06:49:13;;;;;;;8.77;2.78;;;10.70;99.90;;;;;;5095049;28;20055;-76
2022/11/04 06:51:39;;;;;;;9.05;1.65;;;10.70;99.90;;;;;;5095850;28;20024;-75
2022/11/04 06:54:05;;;;;;;7.43;2.58;;;10.70;99.90;;;;;;5095573;28;20067;-75
2022/11/04 06:56:31;;;;;;;4.97;1.50;;;10.70;99.90;;;;;;5095479;28;20024;-75
2022/11/04 06:58:56;;;;;;;6.75;1.60;;;10.80;99.90;;;;;;5095306;28;20462;-75
2022/11/04 07:01:25;;;;;;;5.63;1.83;;;10.90;99.90;;;;;;5095064;28;20028;-75
2022/11/04 07:03:53;;;;;;;7.63;2.08;;;10.90;99.90;;;;;;5094960;28;20070;-75
2022/11/04 07:06:20;;;;;;;14.05;2.60;;;10.90;99.90;;;;;;5095353;28;20052;-75
2022/11/04 07:08:47;;;;;;;8.75;1.83;;;10.60;99.90;;;;;;5095129;28;20020;-75
2022/11/04 07:11:13;;;;;;;8.20;2.25;;;10.40;99.90;;;;;;5094926;28;20046;-75
2022/11/04 07:13:39;;;;;;;5.95;1.30;;;10.20;99.90;;;;;;5095180;28;20529;-75
2022/11/04 07:16:07;;;;;;;10.20;1.60;;;10.20;99.90;;;;;;5094826;28;20024;-76
2022/11/04 07:18:33;;;;;;;7.78;1.88;;;10.20;99.90;;;;;;5094691;28;20148;-76
2022/11/04 07:21:00;;;;;;;6.07;1.25;;;10.10;99.90;;;;;;5093576;28;20062;-77
2022/11/04 07:23:26;;;;;;;6.25;1.63;;;10.00;99.90;;;;;;5094725;28;20147;-76
2022/11/04 07:25:53;;;;;;;3.45;1.30;;;9.90;99.90;;;;;;5093843;28;20529;-77
2022/11/04 07:28:19;;;;;;;3.17;0.90;;;10.00;99.90;;;;;;5094877;28;20051;-77
2022/11/04 07:30:45;;;;;;;2.78;1.00;;;10.10;99.90;;;;;;5094472;28;20028;-77
2022/11/04 07:33:11;;;;;;;2.13;0.80;;;10.00;99.90;;;;;;5094673;28;20026;-77
2022/11/04 07:35:37;;;;;;;2.75;0.82;;;10.00;99.90;;;;;;5093178;28;20405;-77
2022/11/04 07:38:03;;;;;;;1.60;0.70;;;9.90;99.90;;;;;;5094693;28;20144;-77
2022/11/04 07:40:33;;;;;;;2.28;0.90;;;9.90;99.90;;;;;;5094572;28;20085;-77
2022/11/04 07:42:59;;;;;;;2.35;0.63;;;10.00;99.90;;;;;;5101566;28;20107;-77
2022/11/04 07:45:25;;;;;;;1.35;0.70;;;10.10;99.90;;;;;;5094599;28;20028;-77
2022/11/04 07:47:51;;;;;;;1.05;0.60;;;10.00;99.90;;;;;;5094435;28;20070;-77
2022/11/04 07:50:17;;;;;;;1.85;0.73;;;10.00;99.90;;;;;;5094545;28;20028;-77
2022/11/04 07:52:42;;;;;;;2.63;0.70;;;9.90;99.90;;;;;;5092865;28;20031;-77
2022/11/04 07:55:09;;;;;;;3.58;1.02;;;9.80;99.90;;;;;;5094227;28;20447;-77
2022/11/04 07:57:35;;;;;;;2.78;0.65;;;9.70;99.90;;;;;;5094096;28;20024;-77
2022/11/04 08:00:02;;;;;;;2.53;0.70;;;9.60;99.90;;;;;;5094318;28;20032;-77
2022/11/04 08:02:27;;;;;;;1.98;0.57;;;9.50;99.90;;;;;;5093836;28;20051;-77
2022/11/04 08:04:53;;;;;;;2.88;0.63;;;9.40;99.90;;;;;;5093529;28;20038;-77
2022/11/04 08:07:19;;;;;;;3.72;1.10;;;9.40;99.90;;;;;;5093883;28;20048;-77
2022/11/04 08:09:45;;;;;;;1.23;0.50;;;9.50;99.90;;;;;;5092615;28;20226;-77
2022/11/04 08:12:10;;;;;;;3.97;0.50;;;9.50;99.90;;;;;;5093607;28;20021;-77
2022/11/04 08:14:36;;;;;;;2.90;0.98;;;9.40;99.90;;;;;;5092377;28;20085;-77
2022/11/04 08:17:02;;;;;;;2.72;0.70;;;9.40;99.90;;;;;;5092514;28;20473;-77
2022/11/04 08:19:27;;;;;;;2.05;0.68;;;9.40;99.90;;;;;;5091989;28;20028;-77
2022/11/04 08:21:53;;;;;;;2.17;0.60;;;9.40;99.90;;;;;;5093901;28;20024;-77
2022/11/04 08:24:19;;;;;;;2.15;0.88;;;9.40;99.90;;;;;;5093531;28;20226;-77
2022/11/04 08:26:45;;;;;;;0.65;0.52;;;9.30;99.90;;;;;;5093636;28;20397;-77
2022/11/04 08:29:10;;;;;;;3.45;1.10;;;9.30;99.90;;;;;;5093543;28;20046;-77
2022/11/04 08:31:36;;;;;;;5.43;0.90;;;9.30;99.90;;;;;;5093883;28;20533;-77
2022/11/04 08:34:02;;;;;;;2.15;0.95;;;9.40;99.90;;;;;;5093389;28;20548;-77
2022/11/04 08:36:31;;;;;;;1.90;0.90;;;9.40;99.90;;;;;;5092134;28;20031;-77
2022/11/04 08:38:58;;;;;;;7.13;1.27;;;9.50;99.90;;;;;;5093746;28;20062;-77
2022/11/04 08:41:28;;;;;;;1.92;0.60;;;9.50;99.90;;;;;;5096882;28;20114;-78
2022/11/04 08:43:55;;;;;;;2.75;1.10;;;9.50;99.90;;;;;;5094599;28;20474;-77
2022/11/04 08:46:21;;;;;;;3.10;0.70;;;9.50;99.90;;;;;;5093226;28;20026;-77
2022/11/04 08:48:48;;;;;;;1.17;0.55;;;9.50;99.90;;;;;;5093004;28;20028;-77
2022/11/04 08:51:19;;;;;;;2.55;0.63;;;9.50;99.90;;;;;;5093146;28;20036;-77
2022/11/04 08:53:45;;;;;;;3.35;0.60;;;9.60;99.90;;;;;;5093320;28;20067;-77
2022/11/04 08:56:16;;;;;;;4.00;1.25;;;9.60;99.90;;;;;;5091434;28;20489;-77
2022/11/04 08:58:42;;;;;;;2.60;0.82;;;9.70;99.90;;;;;;5091726;28;20490;-77
2022/11/04 09:01:09;;;;;;;3.08;1.10;;;9.70;99.90;;;;;;5093161;28;20035;-77
2022/11/04 09:03:37;;;;;;;1.67;0.60;;;9.90;99.90;;;;;;5091462;28;20035;-77
2022/11/04 09:06:09;;;;;;;1.83;0.60;;;10.00;99.90;;;;;;5091402;28;20028;-77
2022/11/04 09:08:38;;;;;;;4.00;0.70;;;10.10;99.90;;;;;;5092995;28;20012;-77
2022/11/04 09:11:06;;;;;;;3.72;0.80;;;10.10;99.90;;;;;;5091001;28;20020;-77
2022/11/04 09:13:32;;;;;;;3.20;0.80;;;10.10;99.90;;;;;;5092688;28;20142;-77
2022/11/04 09:15:58;;;;;;;2.08;0.70;;;10.60;99.90;;;;;;5092673;28;20099;-77
2022/11/04 09:18:23;;;;;;;2.13;0.70;;;10.60;99.90;;;;;;5091089;28;20028;-77
2022/11/04 09:20:49;;;;;;;2.95;0.70;;;10.40;99.90;;;;;;5092796;28;20028;-77
2022/11/04 09:23:15;;;;;;;2.72;0.60;;;10.50;99.90;;;;;;5092352;28;20541;-78
2022/11/04 09:25:40;;;;;;;1.15;0.60;;;10.50;99.90;;;;;;5092500;28;20046;-78
2022/11/04 09:28:06;;;;;;;2.70;0.65;;;10.80;99.90;;;;;;5092549;28;20043;-78
2022/11/04 09:30:32;;;;;;;5.30;0.80;;;10.80;99.90;;;;;;5091061;28;20109;-78
2022/11/04 09:32:58;;;;;;;3.05;1.33;;;10.90;99.90;;;;;;5091183;28;20016;-77
2022/11/04 09:35:26;;;;;;;2.40;0.80;;;11.10;99.90;;;;;;5092326;28;20073;-78
2022/11/04 09:37:52;;;;;;;2.63;0.82;;;11.10;99.90;;;;;;5091136;28;20477;-78
2022/11/04 09:40:20;;;;;;;2.63;0.90;;;11.10;99.90;;;;;;5092152;28;20030;-78
2022/11/04 09:43:01;;;;;;;3.42;0.93;;;11.00;99.90;;;;;;5099611;28;20070;-77
2022/11/04 09:45:29;;;;;;;3.17;0.90;;;10.80;99.90;;;;;;5092189;28;20028;-76
2022/11/04 09:48:15;;;;;;;4.85;0.80;;;10.60;99.90;;;;;;5090325;28;20036;-76
2022/11/04 09:50:48;;;;;;;4.85;1.00;;;10.50;99.90;;;;;;5092152;28;20024;-75
2022/11/04 09:53:20;;;;;;;5.05;1.00;;;10.50;99.90;;;;;;5092655;28;20108;-76
2022/11/04 09:56:14;;;;;;;5.22;1.20;;;10.60;99.90;;;;;;5091056;28;20042;-76
2022/11/04 09:58:40;;;;;;;4.47;1.33;;;10.50;99.90;;;;;;5092272;28;20104;-76
2022/11/04 10:01:17;;;;;;;4.80;1.13;;;10.40;99.90;;;;;;5090769;28;20485;-76
2022/11/04 10:04:10;;;;;;;4.90;0.90;;;10.40;99.90;;;;;;5090709;28;20055;-76
2022/11/04 10:06:36;;;;;;;6.63;1.92;;;10.70;99.90;;;;;;5091934;28;20035;-76
2022/11/04 10:09:29;;;;;;;4.00;1.33;;;10.70;99.90;;;;;;5091848;28;20501;-76
2022/11/04 10:12:12;;;;;;;5.13;1.02;;;11.10;99.90;;;;;;5090518;28;20020;-76
2022/11/04 10:14:59;;;;;;;4.53;1.27;;;11.40;99.90;;;;;;5090608;28;20031;-76
2022/11/04 10:17:51;;;;;;;5.57;1.40;;;11.50;99.90;;;;;;5090673;28;20036;-76
2022/11/04 10:20:51;;;;;;;5.93;1.13;;;11.20;99.90;;;;;;5090531;28;20032;-76
2022/11/04 10:23:24;;;;;;;8.63;1.80;;;11.30;99.90;;;;;;5091538;28;20060;-76
2022/11/04 10:26:26;;;;;;;3.17;1.17;;;11.20;99.90;;;;;;5091927;28;20024;-76
2022/11/04 10:29:09;;;;;;;5.30;1.15;;;11.30;99.90;;;;;;5090395;28;20020;-76
2022/11/04 10:31:37;;;;;;;8.23;1.55;;;11.50;99.90;;;;;;5090633;28;20070;-76
2022/11/04 10:34:07;;;;;;;8.52;2.00;;;11.90;99.90;;;;;;5090270;28;20549;-76
2022/11/04 10:36:35;;;;;;;4.68;1.50;;;12.10;99.90;;;;;;5090273;28;20028;-76
2022/11/04 10:39:06;;;;;;;6.88;1.60;;;12.10;99.90;;;;;;5090162;28;20028;-76
2022/11/04 10:41:39;;;;;;;9.00;2.42;;;12.10;99.90;;;;;;5098317;28;20511;-76
2022/11/04 10:44:27;;;;;;;10.55;2.13;;;12.10;99.90;;;;;;5091674;27;20031;-77
2022/11/04 10:47:04;;;;;;;7.05;1.85;;;11.90;99.90;;;;;;5091986;28;20107;-76
2022/11/04 10:50:10;;;;;;;6.70;1.92;;;11.80;99.90;;;;;;5091474;28;20020;-76
2022/11/04 10:52:37;;;;;;;10.35;2.45;;;11.80;99.90;;;;;;5091515;28;20028;-76
2022/11/04 10:55:29;;;;;;;12.20;2.67;;;11.90;99.90;;;;;;5091548;28;20086;-76
2022/11/04 10:57:58;;;;;;;15.43;2.45;;;11.90;99.90;;;;;;5012481;28;20037;-76
2022/11/04 11:00:38;;;;;;;13.45;2.25;;;12.00;99.90;;;;;;5030242;28;20037;-77
2022/11/04 11:03:24;;;;;;;15.07;2.80;;;12.00;99.90;;;;;;5032835;28;20036;-76
2022/11/04 11:05:51;;;;;;;10.35;2.90;;;12.10;99.90;;;;;;5032251;28;20064;-76
2022/11/04 11:08:32;;;;;;;14.30;2.97;;;12.10;99.90;;;;;;5032194;28;20034;-76
2022/11/04 11:10:58;;;;;;;13.90;2.65;;;12.10;99.90;;;;;;5015668;28;20022;-77
2022/11/04 11:13:37;;;;;;;12.60;2.58;;;12.30;99.90;;;;;;5032458;28;20415;-76
2022/11/04 11:16:16;;;;;;;12.05;3.08;;;12.60;99.90;;;;;;5032423;28;20033;-76
2022/11/04 11:18:42;;;;;;;13.00;2.50;;;12.90;99.90;;;;;;5015570;28;20026;-76
2022/11/04 11:21:10;;;;;;;12.95;2.47;;;12.90;99.90;;;;;;5031882;28;20032;-76
2022/11/04 11:23:38;;;;;;;11.35;2.67;;;12.90;99.90;;;;;;5032111;28;20057;-76
2022/11/04 11:26:06;;;;;;;12.13;2.72;;;12.80;99.90;;;;;;5032212;28;20515;-76
2022/11/04 11:28:37;;;;;;;10.27;2.60;;;12.70;99.90;;;;;;5015643;28;20025;-76
2022/11/04 11:31:10;;;;;;;13.40;2.80;;;12.60;99.90;;;;;;5032264;28;20097;-77
2022/11/04 11:33:40;;;;;;;12.52;2.78;;;12.60;99.90;;;;;;5017916;28;20542;-76
2022/11/04 11:36:13;;;;;;;14.68;3.05;;;12.80;99.90;;;;;;5094391;28;20123;-76
2022/11/04 11:38:54;;;;;;;14.82;3.05;;;13.00;99.90;;;;;;5093121;28;20028;-76
2022/11/04 11:41:27;;;;;;;15.10;3.38;;;13.10;99.90;;;;;;5097689;28;20115;-76
2022/11/04 11:43:55;;;;;;;12.07;2.17;;;13.10;99.90;;;;;;5096259;28;20032;-76
2022/11/04 11:46:26;;;;;;;16.90;2.58;;;13.00;99.90;;;;;;5094354;28;20028;-76
2022/11/04 11:48:53;;;;;;;;;;;12.90;99.90;;;;;;5093357;28;20509;-76
2022/11/04 11:51:28;;;;;;;14.98;2.45;;;13.00;99.90;;;;;;5093996;28;19911;-76
2022/11/04 11:54:32;;;;;;;12.52;3.13;;;13.10;99.90;;;;;;5092656;28;20020;-76
2022/11/04 11:57:02;;;;;;;13.80;2.90;;;12.90;99.90;;;;;;5094255;28;20012;-76
2022/11/04 11:59:33;;;;;;;12.73;3.80;;;12.60;99.90;;;;;;5094144;28;20523;-76
2022/11/04 12:02:20;;;;;;;15.38;2.85;;;12.40;99.90;;;;;;5094200;28;20520;-75
2022/11/04 12:04:46;;;;;;;14.95;2.70;;;12.20;99.90;;;;;;5093788;28;20036;-76
2022/11/04 12:07:47;;;;;;;14.27;2.40;;;12.10;99.90;;;;;;5092507;28;20016;-75
2022/11/04 12:10:28;;;;;;;15.07;3.35;;;12.00;99.90;;;;;;5083126;28;20051;-75
2022/11/04 12:13:28;;;;;;;13.57;2.45;;;12.00;99.90;;;;;;5092097;28;20016;-76
2022/11/04 12:16:24;;;;;;;16.13;2.75;;;12.10;99.90;;;;;;5031226;28;20099;-75
2022/11/04 12:18:59;;;;;;;15.65;2.70;;;12.00;99.90;;;;;;5014275;28;20038;-75
2022/11/04 12:21:32;;;;;;;11.90;2.45;;;12.00;99.90;;;;;;5014453;28;20029;-75
2022/11/04 12:24:19;;;;;;;11.57;2.78;;;12.00;99.90;;;;;;5030791;28;20049;-75
2022/11/04 12:26:50;;;;;;;13.48;3.30;;;11.90;99.90;;;;;;5014412;28;20029;-75
2022/11/04 12:29:29;;;;;;;14.23;2.95;;;12.10;99.90;;;;;;5031175;28;20040;-75
2022/11/04 12:32:22;;;;;;;15.90;3.90;;;12.20;99.90;;;;;;5014276;28;20025;-75
2022/11/04 12:35:14;;;;;;;10.98;2.10;;;12.60;99.90;;;;;;4917536;29;20518;-75
2022/11/04 12:37:48;;;;;;;15.35;2.53;;;12.80;99.90;;;;;;4933755;29;20027;-76
2022/11/04 12:40:20;;;;;;;5.95;2.00;;;13.20;99.90;;;;;;4917591;29;20032;-76
2022/11/04 12:43:06;;;;;;;9.77;2.10;;;13.10;99.90;;;;;;4959451;28;20042;-76
2022/11/04 12:45:38;;;;;;;8.43;2.28;;;12.90;99.90;;;;;;4952343;29;20632;-76
2022/11/04 12:48:11;;;;;;;9.55;1.85;;;12.90;99.90;;;;;;4952640;29;20024;-76
2022/11/04 12:50:42;;;;;;;14.35;2.92;;;13.10;99.90;;;;;;4947359;28;20567;-76
2022/11/04 12:53:29;;;;;;;12.35;3.08;;;13.00;99.90;;;;;;4991438;28;20030;-76
2022/11/04 12:56:16;;;;;;;8.90;2.00;;;12.90;99.90;;;;;;4991106;28;20042;-76
2022/11/04 12:59:07;;;;;;;13.00;2.28;;;13.00;99.90;;;;;;4974922;28;20038;-76
2022/11/04 13:01:36;;;;;;;13.15;2.60;;;13.10;99.90;;;;;;4991251;28;20030;-76
2022/11/04 13:04:21;;;;;;;10.85;2.55;;;13.10;99.90;;;;;;4974683;28;20085;-76
2022/11/04 13:07:12;;;;;;;10.57;2.30;;;13.30;99.90;;;;;;4991070;28;20053;-75
2022/11/04 13:09:54;;;;;;;13.68;2.58;;;13.60;99.90;;;;;;4990984;28;20033;-76
2022/11/04 13:12:42;;;;;;;9.45;2.53;;;13.70;99.90;;;;;;5043498;28;20103;-76
2022/11/04 13:15:19;;;;;;;11.90;3.30;;;14.00;99.90;;;;;;5087367;28;20051;-76
2022/11/04 13:17:46;;;;;;;10.10;2.60;;;14.00;99.90;;;;;;5092522;28;20110;-76
2022/11/04 13:20:14;;;;;;;10.82;3.08;;;14.20;99.90;;;;;;5091040;28;20482;-76
2022/11/04 13:22:47;;;;;;;15.23;3.25;;;14.20;99.90;;;;;;5090359;28;20043;-76
2022/11/04 13:25:18;;;;;;;12.13;2.55;;;13.90;99.90;;;;;;5092377;28;20028;-76
2022/11/04 13:27:45;;;;;;;;;;;14.10;99.90;;;;;;5093205;28;20121;-76
2022/11/04 13:30:33;;;;;;;10.63;2.92;;;14.00;99.90;;;;;;5092552;28;19910;-76
2022/11/04 13:33:11;;;;;;;12.85;2.80;;;13.70;99.90;;;;;;5092350;28;20039;-76
2022/11/04 13:35:53;;;;;;;12.55;2.60;;;13.50;99.90;;;;;;5092213;28;20055;-76
2022/11/04 13:38:26;;;;;;;11.43;2.88;;;13.40;99.90;;;;;;5092390;28;20023;-76
2022/11/04 13:41:11;;;;;;;12.18;2.78;;;13.30;99.90;;;;;;5091803;28;20035;-76
2022/11/04 13:43:48;;;;;;;14.43;3.03;;;13.20;99.90;;;;;;5096236;28;20020;-76